createdAt,value
2022-12-14T00:00:00.886Z,21.25
2022-12-14T00:03:03.443Z,22.60
2022-12-14T00:06:18.189Z,20.40
2022-12-14T00:09:20.792Z,19.15
2022-12-14T00:12:26.393Z,19.45
2022-12-14T00:15:28.889Z,17.85
2022-12-14T00:18:31.032Z,18.27
2022-12-14T00:21:35.973Z,17.10
2022-12-14T00:24:38.311Z,17.83
2022-12-14T00:27:46.491Z,17.85
2022-12-14T00:30:49.175Z,18.60
2022-12-14T00:33:53.363Z,17.38
2022-12-14T00:36:56.580Z,16.88
2022-12-14T00:40:00.344Z,16.40
2022-12-14T00:43:02.583Z,16.35
2022-12-14T00:46:05.335Z,17.52
2022-12-14T00:49:10.103Z,18.30
2022-12-14T00:52:12.207Z,17.02
2022-12-14T00:55:15.295Z,17.35
2022-12-14T00:58:22.064Z,16.10
2022-12-14T01:01:24.426Z,18.48
2022-12-14T01:04:29.827Z,17.38
2022-12-14T01:07:33.274Z,17.30
2022-12-14T01:10:41.101Z,16.77
2022-12-14T01:13:43.719Z,15.88
2022-12-14T01:16:47.349Z,17.23
2022-12-14T01:19:50.240Z,15.93
2022-12-14T01:22:59.403Z,15.70
2022-12-14T01:26:04.811Z,16.38
2022-12-14T01:29:09.203Z,15.60
2022-12-14T01:32:11.529Z,17.50
2022-12-14T01:35:14.098Z,16.63
2022-12-14T01:38:16.307Z,15.60
2022-12-14T01:41:47.731Z,16.70
2022-12-14T01:44:57.365Z,15.57
2022-12-14T01:48:03.352Z,15.43
2022-12-14T01:51:05.921Z,15.43
2022-12-14T01:54:13.016Z,15.82
2022-12-14T01:57:17.265Z,16.10
2022-12-14T02:00:20.588Z,16.63
2022-12-14T02:03:29.399Z,16.75
2022-12-14T02:06:38.374Z,18.30
2022-12-14T02:09:42.215Z,17.65
2022-12-14T02:12:49.447Z,16.67
2022-12-14T02:15:52.658Z,17.52
2022-12-14T02:18:55.013Z,18.52
2022-12-14T02:22:18.600Z,16.98
2022-12-14T02:25:27.721Z,16.88
2022-12-14T02:29:07.103Z,15.90
2022-12-14T02:32:40.062Z,16.60
2022-12-14T02:35:44.880Z,17.27
2022-12-14T02:38:55.620Z,17.30
2022-12-14T02:42:09.776Z,18.00
2022-12-14T02:45:24.069Z,17.23
2022-12-14T02:48:33.252Z,18.38
2022-12-14T02:51:57.057Z,18.27
2022-12-14T02:55:18.088Z,19.52
2022-12-14T02:58:34.173Z,18.67
2022-12-14T03:01:39.973Z,17.08
2022-12-14T03:04:47.776Z,17.95
2022-12-14T03:08:08.982Z,18.70
2022-12-14T03:11:16.339Z,18.77
2022-12-14T03:14:28.850Z,18.27
2022-12-14T03:17:34.717Z,19.50
2022-12-14T03:20:39.240Z,17.80
2022-12-14T03:23:44.147Z,19.75
2022-12-14T03:26:59.548Z,19.65
2022-12-14T03:30:12.790Z,20.70
2022-12-14T03:33:18.887Z,20.27
2022-12-14T03:36:42.765Z,22.17
2022-12-14T03:39:47.807Z,28.85
2022-12-14T03:42:56.127Z,29.65
2022-12-14T03:46:03.377Z,27.27
2022-12-14T03:49:28.376Z,26.48
2022-12-14T03:53:04.122Z,29.52
2022-12-14T03:56:33.003Z,28.70
2022-12-14T03:59:47.539Z,26.23
2022-12-14T04:03:27.729Z,26.70
2022-12-14T04:06:40.882Z,30.88
2022-12-14T04:10:02.131Z,30.50
2022-12-14T04:13:28.027Z,28.75
2022-12-14T04:16:56.208Z,28.15
2022-12-14T04:20:09.821Z,25.52
2022-12-14T04:23:42.852Z,27.75
2022-12-14T04:26:53.527Z,26.58
2022-12-14T04:29:57.502Z,28.73
2022-12-14T04:33:27.133Z,28.95
2022-12-14T04:36:51.646Z,30.25
2022-12-14T04:40:05.521Z,31.60
2022-12-14T04:43:15.034Z,28.60
2022-12-14T04:46:25.308Z,32.13
2022-12-14T04:49:36.819Z,30.17
2022-12-14T04:52:47.161Z,30.70
2022-12-14T04:55:55.154Z,31.60
2022-12-14T04:58:57.443Z,30.90
2022-12-14T05:02:21.121Z,29.48
2022-12-14T05:05:30.850Z,28.88
2022-12-14T05:08:56.066Z,28.98
2022-12-14T05:12:18.301Z,29.00
2022-12-14T05:15:30.456Z,29.27
2022-12-14T05:18:39.013Z,27.67
2022-12-14T05:21:51.069Z,26.27
2022-12-14T05:24:53.244Z,24.83
2022-12-14T05:27:55.373Z,25.88
2022-12-14T05:30:57.529Z,25.27
2022-12-14T05:33:59.561Z,24.38
2022-12-14T05:37:01.577Z,25.00
2022-12-14T05:40:04.227Z,25.50
2022-12-14T05:43:12.372Z,23.75
2022-12-14T05:46:14.553Z,22.77
2022-12-14T05:49:16.693Z,23.50
2022-12-14T05:52:19.040Z,26.25
2022-12-14T05:55:21.398Z,23.50
2022-12-14T05:58:23.336Z,25.35
2022-12-14T06:01:25.548Z,25.55
2022-12-14T06:04:27.713Z,26.92
2022-12-14T06:07:29.776Z,27.08
2022-12-14T06:10:31.810Z,27.23
2022-12-14T06:13:33.896Z,31.35
2022-12-14T06:16:37.328Z,31.10
2022-12-14T06:19:39.607Z,29.55
2022-12-14T06:22:47.413Z,31.45
2022-12-14T06:25:56.554Z,34.15
2022-12-14T06:32:10.165Z,34.42
2022-12-14T06:35:12.338Z,34.10
2022-12-14T06:38:15.031Z,36.33
2022-12-14T06:41:19.134Z,34.05
2022-12-14T06:44:21.311Z,35.47
2022-12-14T06:47:23.605Z,36.53
2022-12-14T06:50:29.867Z,38.03
2022-12-14T06:53:33.665Z,35.80
2022-12-14T06:56:35.812Z,37.63
2022-12-14T06:59:44.525Z,38.70
2022-12-14T07:02:47.654Z,41.15
2022-12-14T07:05:56.624Z,41.50
2022-12-14T07:09:14.828Z,42.17
2022-12-14T07:12:19.658Z,40.67
2022-12-14T07:15:21.762Z,39.33
2022-12-14T07:18:24.700Z,38.95
2022-12-14T07:21:27.690Z,39.25
2022-12-14T07:24:30.336Z,36.60
2022-12-14T07:27:33.081Z,34.40
2022-12-14T07:30:35.201Z,36.72
2022-12-14T07:33:37.637Z,37.60
2022-12-14T07:36:39.801Z,35.78
2022-12-14T07:39:41.817Z,37.22
2022-12-14T07:42:55.609Z,34.28
2022-12-14T07:46:16.389Z,32.38
2022-12-14T07:49:21.878Z,31.45
2022-12-14T07:52:37.175Z,30.75
2022-12-14T07:56:08.629Z,31.05
2022-12-14T07:59:25.665Z,29.83
2022-12-14T08:02:41.059Z,31.23
2022-12-14T08:05:43.304Z,30.45
2022-12-14T08:08:45.944Z,27.02
2022-12-14T08:11:48.846Z,25.88
2022-12-14T08:14:51.900Z,27.58
2022-12-14T08:17:56.651Z,21.08
2022-12-14T08:20:58.984Z,21.50
2022-12-14T08:24:01.488Z,20.17
2022-12-14T08:27:04.278Z,19.52
2022-12-14T08:30:08.599Z,16.98
2022-12-14T08:33:10.824Z,18.98
2022-12-14T08:36:21.711Z,19.80
2022-12-14T08:39:25.044Z,18.88
2022-12-14T08:42:27.253Z,16.65
2022-12-14T08:45:29.386Z,15.40
2022-12-14T08:48:31.648Z,16.38
2022-12-14T08:51:37.329Z,15.35
2022-12-14T08:54:39.347Z,16.70
2022-12-14T08:57:41.541Z,16.17
2022-12-14T09:00:43.624Z,16.95
2022-12-14T09:03:47.048Z,16.20
2022-12-14T09:06:49.106Z,15.32
2022-12-14T09:09:51.305Z,17.15
2022-12-14T09:12:53.369Z,15.85
2022-12-14T09:16:06.949Z,15.70
2022-12-14T09:19:09.103Z,16.75
2022-12-14T09:22:11.627Z,14.77
2022-12-14T09:25:13.929Z,15.65
2022-12-14T09:28:16.044Z,13.70
2022-12-14T09:31:21.143Z,13.02
2022-12-14T09:34:23.909Z,13.00
2022-12-14T09:37:26.289Z,14.40
2022-12-14T09:40:32.760Z,13.27
2022-12-14T09:43:43.820Z,11.93
2022-12-14T09:46:45.956Z,11.30
2022-12-14T09:49:57.523Z,9.30
2022-12-14T09:53:07.124Z,8.13
2022-12-14T09:56:14.921Z,8.18
2022-12-14T09:59:18.618Z,8.00
2022-12-14T10:02:38.223Z,8.35
2022-12-14T10:05:54.756Z,10.00
2022-12-14T10:09:03.675Z,8.68
2022-12-14T10:12:34.089Z,8.23
2022-12-14T10:15:58.005Z,8.05
2022-12-14T10:19:10.489Z,8.45
2022-12-14T10:22:36.428Z,8.00
2022-12-14T10:25:40.374Z,8.25
2022-12-14T10:29:00.731Z,9.73
2022-12-14T10:32:40.127Z,7.63
2022-12-14T10:35:45.895Z,7.77
2022-12-14T10:39:29.232Z,7.63
2022-12-14T10:42:58.382Z,7.97
2022-12-14T10:46:14.493Z,8.05
2022-12-14T10:49:30.142Z,7.65
2022-12-14T10:52:40.345Z,7.68
2022-12-14T10:55:46.033Z,7.43
2022-12-14T10:59:15.899Z,7.10
2022-12-14T11:02:40.249Z,8.15
2022-12-14T11:06:05.899Z,6.55
2022-12-14T11:09:24.340Z,8.10
2022-12-14T11:12:28.906Z,7.35
2022-12-14T11:15:47.158Z,7.13
2022-12-14T11:19:00.519Z,7.55
2022-12-14T11:22:17.153Z,7.05
2022-12-14T11:25:49.398Z,7.30
2022-12-14T11:28:56.397Z,7.07
2022-12-14T11:32:08.145Z,7.18
2022-12-14T11:35:17.539Z,6.05
2022-12-14T11:38:30.277Z,6.22
2022-12-14T11:41:42.508Z,6.22
2022-12-14T11:44:46.451Z,6.57
2022-12-14T11:48:20.277Z,6.22
2022-12-14T11:51:22.358Z,6.35
2022-12-14T11:54:24.867Z,6.88
2022-12-14T11:57:35.747Z,6.80
2022-12-14T12:00:49.156Z,6.18
2022-12-14T12:03:58.922Z,6.15
2022-12-14T12:07:13.085Z,7.70
2022-12-14T12:10:34.099Z,6.43
2022-12-14T12:13:40.136Z,6.65
2022-12-14T12:16:44.913Z,7.40
2022-12-14T12:19:51.745Z,7.60
2022-12-14T12:23:02.361Z,7.90
2022-12-14T12:26:15.296Z,7.53
2022-12-14T12:29:43.614Z,7.95
2022-12-14T12:32:52.346Z,7.05
2022-12-14T12:35:56.827Z,7.45
2022-12-14T12:39:08.035Z,6.65
2022-12-14T12:42:31.434Z,8.30
2022-12-14T12:45:43.681Z,8.38
2022-12-14T12:48:52.191Z,6.65
2022-12-14T12:52:00.515Z,7.88
2022-12-14T12:55:14.285Z,7.97
2022-12-14T12:58:30.722Z,6.55
2022-12-14T13:01:35.733Z,7.22
2022-12-14T13:04:41.362Z,6.00
2022-12-14T13:07:45.068Z,7.30
2022-12-14T13:11:24.607Z,6.28
2022-12-14T13:14:19.224Z,8.07
2022-12-14T13:17:33.179Z,7.20
2022-12-14T13:20:36.475Z,7.85
2022-12-14T13:23:46.338Z,10.18
2022-12-14T13:27:17.883Z,7.65
2022-12-14T13:30:29.141Z,7.35
2022-12-14T13:33:55.039Z,7.80
2022-12-14T13:37:18.272Z,8.63
2022-12-14T13:40:32.247Z,7.32
2022-12-14T13:44:04.761Z,7.93
2022-12-14T13:47:15.684Z,7.18
2022-12-14T13:50:39.989Z,6.97
2022-12-14T13:53:50.070Z,7.13
2022-12-14T13:57:08.056Z,7.13
2022-12-14T14:00:45.397Z,7.40
2022-12-14T14:03:51.249Z,6.65
2022-12-14T14:06:55.815Z,5.63
2022-12-14T14:10:04.972Z,6.18
2022-12-14T14:13:28.652Z,6.32
2022-12-14T14:16:43.647Z,6.35
2022-12-14T14:19:49.655Z,7.00
2022-12-14T14:23:17.540Z,6.32
2022-12-14T14:26:23.053Z,7.45
2022-12-14T14:29:30.478Z,7.65
2022-12-14T14:32:44.845Z,7.45
2022-12-14T14:35:49.777Z,6.68
2022-12-14T14:38:56.111Z,7.47
2022-12-14T14:42:03.383Z,7.40
2022-12-14T14:45:11.271Z,7.38
2022-12-14T14:48:50.539Z,7.30
2022-12-14T14:51:53.125Z,8.02
2022-12-14T14:55:43.322Z,8.45
2022-12-14T14:58:35.201Z,8.82
2022-12-14T15:01:48.227Z,7.85
2022-12-14T15:04:57.065Z,7.72
2022-12-14T15:08:22.654Z,7.88
2022-12-14T15:11:28.549Z,6.05
2022-12-14T15:14:36.679Z,6.35
2022-12-14T15:17:39.068Z,6.68
2022-12-14T15:20:41.570Z,7.50
2022-12-14T15:23:50.908Z,7.22
2022-12-14T15:26:54.080Z,6.88
2022-12-14T15:34:04.616Z,6.47
2022-12-14T15:42:34.367Z,8.52
2022-12-14T15:45:44.213Z,6.97
2022-12-14T15:48:46.244Z,7.28
2022-12-14T15:51:50.706Z,6.47
2022-12-14T15:54:53.172Z,6.15
2022-12-14T15:57:55.832Z,7.45
2022-12-14T16:01:27.987Z,7.20
2022-12-14T16:04:31.232Z,6.43
2022-12-14T16:07:42.468Z,6.88
2022-12-14T16:10:46.303Z,7.35
2022-12-14T16:13:50.750Z,6.30
2022-12-14T16:16:55.543Z,6.97
2022-12-14T16:20:20.847Z,7.65
2022-12-14T16:23:33.383Z,7.70
2022-12-14T16:26:38.766Z,7.93
2022-12-14T16:29:48.070Z,10.10
2022-12-14T16:33:06.575Z,9.38
2022-12-14T16:36:22.706Z,10.68
2022-12-14T16:39:32.542Z,10.63
2022-12-14T16:42:36.414Z,10.38
2022-12-14T16:46:06.300Z,9.52
2022-12-14T16:49:31.016Z,8.82
2022-12-14T16:52:37.660Z,8.95
2022-12-14T16:56:14.997Z,9.98
2022-12-14T16:59:42.261Z,9.15
2022-12-14T17:02:55.847Z,8.38
2022-12-14T17:06:05.499Z,8.98
2022-12-14T17:09:20.107Z,7.25
2022-12-14T17:12:24.140Z,7.93
2022-12-14T17:15:28.481Z,8.18
2022-12-14T17:18:34.433Z,7.43
2022-12-14T17:21:37.150Z,7.97
2022-12-14T17:24:39.491Z,6.82
2022-12-14T17:27:42.082Z,7.45
2022-12-14T17:30:44.131Z,7.85
2022-12-14T17:33:46.211Z,8.23
2022-12-14T17:36:48.339Z,9.35
2022-12-14T17:39:51.073Z,8.95
2022-12-14T17:42:56.256Z,9.07
2022-12-14T17:46:01.398Z,7.97
2022-12-14T17:49:06.799Z,7.25
2022-12-14T17:52:36.881Z,8.05
2022-12-14T17:55:38.952Z,7.35
2022-12-14T17:58:41.134Z,7.35
2022-12-14T18:01:45.738Z,6.97
2022-12-14T18:04:52.175Z,7.22
2022-12-14T18:07:54.842Z,6.60
2022-12-14T18:11:01.045Z,8.15
2022-12-14T18:14:03.703Z,6.70
2022-12-14T18:17:11.165Z,6.35
2022-12-14T18:20:14.321Z,7.53
2022-12-14T18:23:17.660Z,6.82
2022-12-14T18:26:21.272Z,6.05
2022-12-14T18:29:23.428Z,7.03
2022-12-14T18:32:25.836Z,6.93
2022-12-14T18:35:31.527Z,6.07
2022-12-14T18:38:33.511Z,5.93
2022-12-14T18:41:35.827Z,5.75
2022-12-14T18:44:38.822Z,6.22
2022-12-14T18:47:42.457Z,6.70
2022-12-14T18:50:46.301Z,6.07
2022-12-14T18:53:54.782Z,6.05
2022-12-14T18:56:57.267Z,6.47
2022-12-14T19:00:00.002Z,6.80
2022-12-14T19:03:03.758Z,6.65
2022-12-14T19:06:42.372Z,5.85
2022-12-14T19:09:31.213Z,5.60
2022-12-14T19:12:35.503Z,5.80
2022-12-14T19:15:37.751Z,5.30
2022-12-14T19:18:39.957Z,6.20
2022-12-14T19:21:42.296Z,6.25
2022-12-14T19:24:47.804Z,6.07
2022-12-14T19:28:56.099Z,5.07
2022-12-14T19:31:17.333Z,5.65
2022-12-14T19:34:19.785Z,6.28
2022-12-14T19:37:23.209Z,5.50
2022-12-14T19:40:26.860Z,5.22
2022-12-14T19:43:30.551Z,4.35
2022-12-14T19:46:32.917Z,5.47
2022-12-14T19:49:34.970Z,5.03
2022-12-14T19:52:38.623Z,4.95
2022-12-14T19:55:40.813Z,4.32
2022-12-14T19:58:43.622Z,4.35
2022-12-14T20:01:48.154Z,4.13
2022-12-14T20:04:50.887Z,5.05
2022-12-14T20:07:52.964Z,4.95
2022-12-14T20:10:55.163Z,4.90
2022-12-14T20:14:02.950Z,5.25
2022-12-14T20:17:11.262Z,5.32
2022-12-14T20:20:13.867Z,4.32
2022-12-14T20:23:15.945Z,4.00
2022-12-14T20:26:21.088Z,5.20
2022-12-14T20:29:23.695Z,3.88
2022-12-14T20:32:28.567Z,4.75
2022-12-14T20:35:53.702Z,5.03
2022-12-14T20:39:01.850Z,4.55
2022-12-14T20:42:04.118Z,5.05
2022-12-14T20:45:11.898Z,4.78
2022-12-14T20:48:14.061Z,4.55
2022-12-14T20:51:16.274Z,4.45
2022-12-14T20:54:22.388Z,3.55
2022-12-14T20:57:35.998Z,4.70
2022-12-14T21:00:38.110Z,3.78
2022-12-14T21:03:42.520Z,3.92
2022-12-14T21:06:44.817Z,4.28
2022-12-14T21:09:46.986Z,4.47
2022-12-14T21:12:49.264Z,4.28
2022-12-14T21:16:01.418Z,3.72
2022-12-14T21:19:05.882Z,3.70
2022-12-14T21:22:14.662Z,3.92
2022-12-14T21:25:16.822Z,4.40
2022-12-14T21:28:18.979Z,3.33
2022-12-14T21:31:25.235Z,3.85
2022-12-14T21:34:30.236Z,2.60
2022-12-14T21:37:32.510Z,4.55
2022-12-14T21:40:54.417Z,3.92
2022-12-14T21:43:59.378Z,4.78
2022-12-14T21:47:01.870Z,3.75
2022-12-14T21:50:06.001Z,3.72
2022-12-14T21:53:08.498Z,5.20
2022-12-14T21:56:30.435Z,4.07
2022-12-14T21:59:35.796Z,4.07
2022-12-14T22:02:37.999Z,14.15
2022-12-14T22:05:45.118Z,2.78
2022-12-14T22:08:47.580Z,4.40
2022-12-14T22:11:50.769Z,4.50
2022-12-14T22:14:55.671Z,4.07
2022-12-14T22:17:58.002Z,4.32
2022-12-14T22:21:06.810Z,3.40
2022-12-14T22:24:10.136Z,3.70
2022-12-14T22:27:12.938Z,3.38
2022-12-14T22:30:15.511Z,3.92
2022-12-14T22:33:17.628Z,2.88
2022-12-14T22:36:19.629Z,3.60
2022-12-14T22:39:21.602Z,3.42
2022-12-14T22:42:23.640Z,3.47
2022-12-14T22:45:27.739Z,3.80
2022-12-14T22:48:33.919Z,3.65
2022-12-14T22:51:38.175Z,3.10
2022-12-14T22:54:42.866Z,3.47
2022-12-14T22:57:47.345Z,2.83
2022-12-14T23:00:50.006Z,3.47
2022-12-14T23:03:53.151Z,2.83
2022-12-14T23:06:55.733Z,2.72
2022-12-14T23:10:16.502Z,2.97
2022-12-14T23:13:37.337Z,3.10
2022-12-14T23:16:58.084Z,2.55
2022-12-14T23:20:18.995Z,2.78
2022-12-14T23:23:42.111Z,2.85
2022-12-14T23:27:09.649Z,2.85
2022-12-14T23:30:30.952Z,3.13
2022-12-14T23:33:51.921Z,2.78
2022-12-14T23:37:17.993Z,2.47
2022-12-14T23:40:41.930Z,2.33
2022-12-14T23:44:02.733Z,3.10
2022-12-14T23:47:23.636Z,3.13
2022-12-14T23:50:45.874Z,2.78
2022-12-14T23:54:07.950Z,3.00
2022-12-14T23:57:28.728Z,3.15
